createdAt,value
2019-02-20T00:01:56.532Z,100479.25
2019-02-20T00:04:30.441Z,100479.88
2019-02-20T00:07:03.017Z,100472.00
2019-02-20T00:09:36.608Z,100470.02
2019-02-20T00:12:13.240Z,100472.44
2019-02-20T00:14:47.515Z,100472.20
2019-02-20T00:17:21.169Z,100473.97
2019-02-20T00:19:55.495Z,100473.64
2019-02-20T00:22:30.114Z,100468.20
2019-02-20T00:25:04.063Z,100472.98
2019-02-20T00:27:36.690Z,100472.98
2019-02-20T00:30:10.963Z,100470.01
2019-02-20T00:32:45.163Z,100469.88
2019-02-20T00:35:18.709Z,100470.61
2019-02-20T00:37:54.816Z,100475.72
2019-02-20T00:40:28.703Z,100479.42
2019-02-20T00:43:03.872Z,100481.46
2019-02-20T00:45:49.589Z,100487.17
2019-02-20T00:48:45.220Z,100485.61
2019-02-20T00:51:49.933Z,100485.22
2019-02-20T00:54:23.127Z,100488.52
2019-02-20T00:56:57.822Z,100486.27
2019-02-20T00:59:32.310Z,100489.52
2019-02-20T01:02:05.877Z,100491.41
2019-02-20T01:04:40.056Z,100490.88
2019-02-20T01:07:13.652Z,100492.30
2019-02-20T01:09:48.383Z,100487.02
2019-02-20T01:12:21.662Z,100489.89
2019-02-20T01:14:58.459Z,100485.91
2019-02-20T01:17:31.805Z,100487.06
2019-02-20T01:20:06.613Z,100483.44
2019-02-20T01:22:39.433Z,100481.22
2019-02-20T01:25:13.342Z,100474.91
2019-02-20T01:27:47.227Z,100482.49
2019-02-20T01:30:20.260Z,100482.33
2019-02-20T01:32:52.996Z,100478.09
2019-02-20T01:35:26.250Z,100475.65
2019-02-20T01:37:59.633Z,100475.69
2019-02-20T01:40:34.320Z,100474.95
2019-02-20T01:43:07.672Z,100471.56
2019-02-20T01:45:41.456Z,100474.08
2019-02-20T01:48:15.823Z,100481.13
2019-02-20T01:50:50.707Z,100480.19
2019-02-20T01:53:25.166Z,100475.20
2019-02-20T01:55:58.314Z,100475.12
2019-02-20T01:58:32.083Z,100471.94
2019-02-20T02:01:05.521Z,100467.65
2019-02-20T02:03:39.269Z,100469.82
2019-02-20T02:06:11.723Z,100468.72
2019-02-20T02:08:44.231Z,100466.48
2019-02-20T02:11:17.936Z,100467.67
2019-02-20T02:13:51.290Z,100470.00
2019-02-20T02:16:24.462Z,100476.45
2019-02-20T02:18:58.405Z,100477.20
2019-02-20T02:21:31.029Z,100472.39
2019-02-20T02:24:03.695Z,100467.20
2019-02-20T02:26:36.530Z,100471.58
2019-02-20T02:29:09.078Z,100472.88
2019-02-20T02:31:42.180Z,100482.27
2019-02-20T02:34:15.640Z,100479.32
2019-02-20T02:36:48.463Z,100476.23
2019-02-20T02:39:21.086Z,100488.73
2019-02-20T02:41:55.075Z,100488.72
2019-02-20T02:44:27.678Z,100482.75
2019-02-20T02:47:00.212Z,100480.93
2019-02-20T02:49:33.273Z,100479.72
2019-02-20T02:52:05.749Z,100475.38
2019-02-20T02:54:38.560Z,100474.92
2019-02-20T02:57:12.252Z,100464.97
2019-02-20T02:59:44.958Z,100463.67
2019-02-20T03:02:17.830Z,100463.91
2019-02-20T03:04:52.046Z,100462.52
2019-02-20T03:07:24.995Z,100458.08
2019-02-20T03:09:57.569Z,100464.59
2019-02-20T03:12:31.177Z,100465.35
2019-02-20T03:15:05.985Z,100467.25
2019-02-20T03:17:38.687Z,100470.13
2019-02-20T03:20:12.499Z,100469.25
2019-02-20T03:22:45.066Z,100472.95
2019-02-20T03:25:17.634Z,100475.27
2019-02-20T03:27:50.344Z,100472.28
2019-02-20T03:30:23.142Z,100471.45
2019-02-20T03:32:57.055Z,100469.16
2019-02-20T03:35:29.975Z,100463.94
2019-02-20T03:38:02.561Z,100463.02
2019-02-20T03:40:35.315Z,100469.09
2019-02-20T03:43:10.480Z,100471.58
2019-02-20T03:45:43.563Z,100473.17
2019-02-20T03:48:17.028Z,100467.78
2019-02-20T03:50:49.914Z,100472.14
2019-02-20T03:53:22.709Z,100476.63
2019-02-20T03:55:55.515Z,100485.06
2019-02-20T03:58:28.659Z,100481.61
2019-02-20T04:01:01.191Z,100481.80
2019-02-20T04:03:33.820Z,100485.02
2019-02-20T04:06:06.973Z,100483.19
2019-02-20T04:08:39.557Z,100488.23
2019-02-20T04:11:12.765Z,100485.33
2019-02-20T04:13:45.932Z,100483.58
2019-02-20T04:16:19.538Z,100485.88
2019-02-20T04:18:52.167Z,100485.30
2019-02-20T04:21:26.395Z,100484.53
2019-02-20T04:24:02.778Z,100489.20
2019-02-20T04:26:38.291Z,100486.75
2019-02-20T04:29:12.673Z,100485.25
2019-02-20T04:31:46.471Z,100488.13
2019-02-20T04:34:19.557Z,100490.77
2019-02-20T04:36:52.618Z,100490.34
2019-02-20T04:39:26.638Z,100491.96
2019-02-20T04:42:03.267Z,100490.78
2019-02-20T04:44:35.862Z,100495.89
2019-02-20T04:47:08.301Z,100494.83
2019-02-20T04:49:44.925Z,100491.23
2019-02-20T04:52:17.596Z,100489.54
2019-02-20T04:54:50.033Z,100490.20
2019-02-20T04:57:22.641Z,100490.75
2019-02-20T04:59:55.330Z,100493.77
2019-02-20T05:02:27.907Z,100490.70
2019-02-20T05:05:04.354Z,100494.69
2019-02-20T05:07:38.039Z,100490.19
2019-02-20T05:10:13.450Z,100489.61
2019-02-20T05:12:46.110Z,100492.96
2019-02-20T05:15:18.684Z,100495.81
2019-02-20T05:17:51.612Z,100486.03
2019-02-20T05:20:25.156Z,100484.98
2019-02-20T05:22:57.702Z,100481.27
2019-02-20T05:25:31.650Z,100481.81
2019-02-20T05:28:04.310Z,100483.25
2019-02-20T05:30:36.803Z,100485.63
2019-02-20T05:33:10.673Z,100485.19
2019-02-20T05:35:43.187Z,100488.26
2019-02-20T05:38:16.008Z,100487.98
2019-02-20T05:40:49.634Z,100488.91
2019-02-20T05:43:22.947Z,100481.50
2019-02-20T05:45:55.392Z,100481.07
2019-02-20T05:48:28.441Z,100487.25
2019-02-20T05:51:01.422Z,100484.03
2019-02-20T05:53:33.848Z,100484.42
2019-02-20T05:56:07.284Z,100482.41
2019-02-20T05:58:40.637Z,100483.62
2019-02-20T06:01:14.139Z,100488.37
2019-02-20T06:03:47.079Z,100491.40
2019-02-20T06:06:19.729Z,100497.63
2019-02-20T06:08:52.245Z,100500.15
2019-02-20T06:11:25.462Z,100502.38
2019-02-20T06:13:58.190Z,100504.77
2019-02-20T06:16:30.792Z,100510.18
2019-02-20T06:19:03.643Z,100514.73
2019-02-20T06:21:36.217Z,100515.95
2019-02-20T06:24:08.729Z,100514.93
2019-02-20T06:26:41.482Z,100519.23
2019-02-20T06:29:14.039Z,100522.53
2019-02-20T06:31:46.636Z,100526.91
2019-02-20T06:34:19.817Z,100524.22
2019-02-20T06:36:52.708Z,100525.58
2019-02-20T06:39:25.803Z,100522.59
2019-02-20T06:41:59.595Z,100526.61
2019-02-20T06:44:33.538Z,100526.48
2019-02-20T06:47:06.354Z,100525.91
2019-02-20T06:49:42.928Z,100527.30
2019-02-20T06:52:16.358Z,100532.39
2019-02-20T06:54:53.882Z,100538.98
2019-02-20T06:57:26.852Z,100542.91
2019-02-20T07:00:00.830Z,100539.34
2019-02-20T07:02:36.288Z,100544.08
2019-02-20T07:05:44.612Z,100541.52
2019-02-20T07:09:10.118Z,100543.76
2019-02-20T07:12:27.194Z,100546.44
2019-02-20T07:15:50.715Z,100553.77
2019-02-20T07:19:00.554Z,100550.31
2019-02-20T07:22:46.232Z,100554.20
2019-02-20T07:26:07.369Z,100554.16
2019-02-20T07:29:58.345Z,100551.70
2019-02-20T07:32:45.440Z,100552.13
2019-02-20T07:35:19.126Z,100554.66
2019-02-20T07:37:52.548Z,100561.03
2019-02-20T07:40:25.116Z,100561.28
2019-02-20T07:42:59.105Z,100559.14
2019-02-20T07:45:32.287Z,100567.38
2019-02-20T07:48:05.640Z,100565.30
2019-02-20T07:50:40.305Z,100570.19
2019-02-20T07:53:12.719Z,100569.92
2019-02-20T07:55:45.358Z,100581.95
2019-02-20T07:58:17.854Z,100596.25
2019-02-20T08:00:55.807Z,100593.23
2019-02-20T08:03:29.833Z,100600.34
2019-02-20T08:06:03.671Z,100603.08
2019-02-20T08:08:37.559Z,100598.98
2019-02-20T08:11:13.356Z,100597.83
2019-02-20T08:13:47.867Z,100600.42
2019-02-20T08:16:20.486Z,100603.34
2019-02-20T08:18:53.097Z,100609.43
2019-02-20T08:21:26.882Z,100605.86
2019-02-20T08:24:00.063Z,100616.51
2019-02-20T08:26:37.042Z,100621.45
2019-02-20T08:29:12.983Z,100617.50
2019-02-20T08:31:46.627Z,100625.46
2019-02-20T08:34:19.613Z,100625.89
2019-02-20T08:36:52.645Z,100629.53
2019-02-20T08:39:27.998Z,100623.54
2019-02-20T08:42:02.873Z,100637.61
2019-02-20T08:44:42.218Z,100631.26
2019-02-20T08:47:16.952Z,100635.03
2019-02-20T08:49:51.308Z,100630.44
2019-02-20T08:52:23.771Z,100634.51
2019-02-20T08:54:57.875Z,100636.97
2019-02-20T08:57:34.919Z,100628.75
2019-02-20T09:00:14.588Z,100635.36
2019-02-20T09:02:48.143Z,100637.70
2019-02-20T09:05:20.879Z,100639.12
2019-02-20T09:07:54.299Z,100638.59
2019-02-20T09:10:26.755Z,100642.72
2019-02-20T09:13:07.527Z,100637.08
2019-02-20T09:15:40.140Z,100636.16
2019-02-20T09:18:13.573Z,100639.53
2019-02-20T09:20:47.626Z,100637.30
2019-02-20T09:23:20.719Z,100640.28
2019-02-20T09:25:54.686Z,100642.16
2019-02-20T09:28:29.163Z,100644.52
2019-02-20T09:31:01.622Z,100649.45
2019-02-20T09:33:35.013Z,100655.14
2019-02-20T09:36:07.944Z,100656.38
2019-02-20T09:38:47.934Z,100660.06
2019-02-20T09:41:21.954Z,100658.28
2019-02-20T09:43:55.086Z,100646.13
2019-02-20T09:46:28.178Z,100644.50
2019-02-20T09:49:02.838Z,100646.56
2019-02-20T09:51:38.827Z,100652.09
2019-02-20T09:54:11.279Z,100651.67
2019-02-20T09:56:45.731Z,100649.63
2019-02-20T09:59:19.591Z,100650.50
2019-02-20T10:01:52.793Z,100645.25
2019-02-20T10:04:25.360Z,100642.62
2019-02-20T10:07:00.497Z,100647.05
2019-02-20T10:09:37.078Z,100640.87
2019-02-20T10:12:11.638Z,100646.20
2019-02-20T10:14:44.475Z,100643.84
2019-02-20T10:17:18.147Z,100649.06
2019-02-20T10:19:51.551Z,100652.38
2019-02-20T10:22:35.721Z,100652.58
2019-02-20T10:25:17.327Z,100648.99
2019-02-20T10:27:50.431Z,100648.70
2019-02-20T10:30:22.960Z,100654.31
2019-02-20T10:32:59.375Z,100650.31
2019-02-20T10:35:32.007Z,100654.66
2019-02-20T10:38:05.674Z,100653.28
2019-02-20T10:40:38.695Z,100653.53
2019-02-20T10:43:12.273Z,100650.06
2019-02-20T10:45:45.867Z,100654.74
2019-02-20T10:48:21.101Z,100651.55
2019-02-20T10:50:54.751Z,100664.44
2019-02-20T10:53:28.095Z,100664.05
2019-02-20T10:56:08.951Z,100661.53
2019-02-20T10:58:42.211Z,100659.37
2019-02-20T11:01:17.215Z,100659.50
2019-02-20T11:03:51.935Z,100654.88
2019-02-20T11:06:27.354Z,100660.66
2019-02-20T11:09:04.554Z,100655.28
2019-02-20T11:11:38.735Z,100658.34
2019-02-20T11:14:15.966Z,100662.53
2019-02-20T11:16:50.396Z,100663.66
2019-02-20T11:19:24.585Z,100660.23
2019-02-20T11:21:58.002Z,100657.16
2019-02-20T11:24:31.474Z,100661.09
2019-02-20T11:27:05.073Z,100657.81
2019-02-20T11:29:38.145Z,100659.13
2019-02-20T11:32:10.715Z,100655.76
2019-02-20T11:34:43.736Z,100663.13
2019-02-20T11:37:15.427Z,100658.61
2019-02-20T11:39:51.320Z,100660.11
2019-02-20T11:42:25.060Z,100656.98
2019-02-20T11:45:04.645Z,100650.19
2019-02-20T11:47:39.260Z,100655.30
2019-02-20T11:50:15.063Z,100651.73
2019-02-20T11:52:49.811Z,100659.42
2019-02-20T11:55:23.091Z,100656.26
2019-02-20T11:58:00.761Z,100654.06
2019-02-20T12:00:36.507Z,100651.72
2019-02-20T12:03:09.943Z,100653.53
2019-02-20T12:05:43.846Z,100654.80
2019-02-20T12:08:16.708Z,100651.59
2019-02-20T12:10:50.167Z,100653.66
2019-02-20T12:13:23.240Z,100652.23
2019-02-20T12:15:57.707Z,100646.20
2019-02-20T12:18:39.117Z,100649.11
2019-02-20T12:21:12.631Z,100651.33
2019-02-20T12:23:46.456Z,100653.08
2019-02-20T12:26:19.824Z,100651.30
2019-02-20T12:28:54.789Z,100647.95
2019-02-20T12:31:32.355Z,100650.78
2019-02-20T12:34:10.698Z,100643.78
2019-02-20T12:36:44.081Z,100642.78
2019-02-20T12:39:17.755Z,100649.34
2019-02-20T12:41:50.297Z,100651.16
2019-02-20T12:44:24.438Z,100648.66
2019-02-20T12:46:57.494Z,100649.03
2019-02-20T12:49:30.864Z,100648.72
2019-02-20T12:52:07.146Z,100649.88
2019-02-20T12:54:41.638Z,100653.71
2019-02-20T12:57:16.694Z,100661.59
2019-02-20T12:59:51.520Z,100652.56
2019-02-20T13:02:27.097Z,100645.12
2019-02-20T13:05:00.674Z,100645.53
2019-02-20T13:07:36.203Z,100644.09
2019-02-20T13:10:10.691Z,100646.36
2019-02-20T13:12:44.192Z,100645.33
2019-02-20T13:15:19.012Z,100641.14
2019-02-20T13:17:57.722Z,100642.73
2019-02-20T13:20:30.912Z,100642.11
2019-02-20T13:23:05.266Z,100642.08
2019-02-20T13:25:38.578Z,100647.53
2019-02-20T13:28:12.579Z,100642.22
2019-02-20T13:30:49.650Z,100640.93
2019-02-20T13:33:23.940Z,100634.45
2019-02-20T13:35:57.979Z,100635.59
2019-02-20T13:38:32.597Z,100640.01
2019-02-20T13:41:07.832Z,100643.49
2019-02-20T13:43:40.472Z,100640.85
2019-02-20T13:46:14.559Z,100635.55
2019-02-20T13:48:50.665Z,100636.48
2019-02-20T13:51:25.574Z,100630.89
2019-02-20T13:54:09.266Z,100625.88
2019-02-20T13:56:44.818Z,100629.64
2019-02-20T13:59:22.375Z,100632.17
2019-02-20T14:01:56.662Z,100636.44
2019-02-20T14:04:30.228Z,100633.55
2019-02-20T14:07:03.577Z,100634.70
2019-02-20T14:09:38.482Z,100632.73
2019-02-20T14:12:12.134Z,100631.39
2019-02-20T14:14:45.070Z,100634.52
2019-02-20T14:17:26.581Z,100638.44
2019-02-20T14:20:01.383Z,100640.02
2019-02-20T14:22:35.662Z,100638.22
2019-02-20T14:25:09.389Z,100630.33
2019-02-20T14:27:41.893Z,100629.67
2019-02-20T14:30:16.113Z,100632.02
2019-02-20T14:32:49.299Z,100635.48
2019-02-20T14:35:22.680Z,100630.56
2019-02-20T14:37:56.944Z,100633.20
2019-02-20T14:40:30.833Z,100635.20
2019-02-20T14:43:06.716Z,100636.53
2019-02-20T14:45:44.028Z,100626.14
2019-02-20T14:48:16.547Z,100629.65
2019-02-20T14:50:49.351Z,100628.89
2019-02-20T14:53:25.102Z,100636.08
2019-02-20T14:55:57.939Z,100628.14
2019-02-20T14:58:31.980Z,100630.88
2019-02-20T15:01:07.828Z,100635.19
2019-02-20T15:03:40.956Z,100635.80
2019-02-20T15:06:13.756Z,100635.57
2019-02-20T15:08:48.701Z,100635.92
2019-02-20T15:11:24.105Z,100637.33
2019-02-20T15:14:00.425Z,100638.47
2019-02-20T15:16:33.950Z,100637.02
2019-02-20T15:19:09.491Z,100633.97
2019-02-20T15:21:42.291Z,100636.39
2019-02-20T15:24:17.893Z,100632.48
2019-02-20T15:26:55.172Z,100636.94
2019-02-20T15:29:28.443Z,100638.78
2019-02-20T15:32:01.139Z,100643.21
2019-02-20T15:34:34.093Z,100645.78
2019-02-20T15:37:17.382Z,100648.90
2019-02-20T15:39:51.584Z,100654.20
2019-02-20T15:42:26.232Z,100645.70
2019-02-20T15:44:59.831Z,100650.31
2019-02-20T15:47:33.147Z,100647.44
2019-02-20T15:50:09.815Z,100649.94
2019-02-20T15:52:43.495Z,100648.21
2019-02-20T15:55:16.817Z,100647.39
2019-02-20T15:57:50.191Z,100652.78
2019-02-20T16:00:26.617Z,100657.23
2019-02-20T16:03:02.002Z,100653.78
2019-02-20T16:05:38.535Z,100659.24
2019-02-20T16:08:18.699Z,100655.03
2019-02-20T16:10:52.459Z,100656.04
2019-02-20T16:13:26.034Z,100659.70
2019-02-20T16:15:58.615Z,100656.55
2019-02-20T16:18:33.464Z,100652.44
2019-02-20T16:21:08.151Z,100656.84
2019-02-20T16:23:41.399Z,100652.80
2019-02-20T16:26:17.791Z,100653.55
2019-02-20T16:28:58.634Z,100651.82
2019-02-20T16:31:37.682Z,100656.70
2019-02-20T16:34:16.339Z,100653.62
2019-02-20T16:36:51.521Z,100653.06
2019-02-20T16:39:25.061Z,100656.45
2019-02-20T16:42:01.098Z,100656.80
2019-02-20T16:44:37.222Z,100653.48
2019-02-20T16:47:11.273Z,100651.27
2019-02-20T16:49:44.668Z,100659.47
2019-02-20T16:52:18.351Z,100663.67
2019-02-20T16:54:51.879Z,100664.02
2019-02-20T16:57:27.162Z,100668.12
2019-02-20T16:59:59.724Z,100666.84
2019-02-20T17:02:35.831Z,100671.48
2019-02-20T17:05:15.635Z,100676.58
2019-02-20T17:07:49.174Z,100686.36
2019-02-20T17:10:24.985Z,100689.95
2019-02-20T17:12:58.326Z,100691.13
2019-02-20T17:15:31.517Z,100691.66
2019-02-20T17:18:06.251Z,100693.52
2019-02-20T17:20:40.289Z,100702.54
2019-02-20T17:23:16.099Z,100705.67
2019-02-20T17:25:51.980Z,100702.17
2019-02-20T17:28:32.448Z,100703.62
2019-02-20T17:31:07.040Z,100707.87
2019-02-20T17:33:41.587Z,100706.58
2019-02-20T17:36:16.333Z,100714.43
2019-02-20T17:38:49.931Z,100711.09
2019-02-20T17:41:29.513Z,100715.06
2019-02-20T17:44:03.036Z,100715.75
2019-02-20T17:46:41.566Z,100720.53
2019-02-20T17:49:14.722Z,100725.53
2019-02-20T17:51:49.167Z,100727.28
2019-02-20T17:54:23.625Z,100727.02
2019-02-20T17:57:07.835Z,100736.38
2019-02-20T17:59:45.220Z,100728.37
2019-02-20T18:02:19.096Z,100728.37
2019-02-20T18:04:53.855Z,100733.20
2019-02-20T18:07:37.990Z,100739.38
2019-02-20T18:10:18.178Z,100737.27
2019-02-20T18:12:54.243Z,100736.70
2019-02-20T18:15:28.817Z,100733.36
2019-02-20T18:18:04.346Z,100725.87
2019-02-20T18:20:43.429Z,100726.39
2019-02-20T18:23:17.921Z,100727.61
2019-02-20T18:25:53.937Z,100730.47
2019-02-20T18:28:36.295Z,100732.65
2019-02-20T18:31:11.734Z,100736.46
2019-02-20T18:33:47.305Z,100736.19
2019-02-20T18:36:41.016Z,100742.42
2019-02-20T18:39:16.167Z,100737.67
2019-02-20T18:41:51.052Z,100742.13
2019-02-20T18:44:37.052Z,100739.40
2019-02-20T18:47:41.012Z,100740.64
2019-02-20T18:50:19.701Z,100742.64
2019-02-20T18:52:54.608Z,100745.91
2019-02-20T18:55:34.458Z,100743.75
2019-02-20T18:58:10.172Z,100746.48
2019-02-20T19:00:44.275Z,100751.44
2019-02-20T19:03:17.457Z,100753.77
2019-02-20T19:05:51.738Z,100753.23
2019-02-20T19:08:56.874Z,100754.98
2019-02-20T19:12:04.913Z,100751.97
2019-02-20T19:15:26.455Z,100756.50
2019-02-20T19:19:02.518Z,100755.74
2019-02-20T19:22:43.875Z,100752.52
2019-02-20T19:26:13.908Z,100757.82
2019-02-20T19:29:30.900Z,100757.67
2019-02-20T19:32:56.714Z,100755.83
2019-02-20T19:36:23.235Z,100761.42
2019-02-20T19:39:20.420Z,100756.33
2019-02-20T19:42:44.005Z,100759.08
2019-02-20T19:46:00.317Z,100758.66
2019-02-20T19:49:03.285Z,100761.66
2019-02-20T19:52:35.475Z,100762.25
2019-02-20T19:55:35.077Z,100759.36
2019-02-20T19:58:54.909Z,100758.30
2019-02-20T20:02:27.738Z,100765.67
2019-02-20T20:05:57.846Z,100772.52
2019-02-20T20:08:53.678Z,100767.12
2019-02-20T20:12:23.889Z,100768.00
2019-02-20T20:15:44.153Z,100770.19
2019-02-20T20:19:23.881Z,100770.16
2019-02-20T20:23:17.784Z,100767.71
2019-02-20T20:26:33.766Z,100765.27
2019-02-20T20:29:46.677Z,100764.17
2019-02-20T20:32:56.308Z,100763.31
2019-02-20T20:36:45.714Z,100759.20
2019-02-20T20:40:12.476Z,100765.63
2019-02-20T20:43:13.817Z,100768.11
2019-02-20T20:46:19.803Z,100770.19
2019-02-20T20:49:34.574Z,100770.61
2019-02-20T20:52:28.654Z,100769.71
2019-02-20T20:56:02.017Z,100776.56
2019-02-20T20:59:17.896Z,100777.13
2019-02-20T21:02:37.317Z,100779.66
2019-02-20T21:05:53.557Z,100784.08
2019-02-20T21:08:48.668Z,100783.02
2019-02-20T21:12:29.992Z,100779.91
2019-02-20T21:15:56.281Z,100778.55
2019-02-20T21:19:22.297Z,100787.46
2019-02-20T21:22:54.343Z,100786.94
2019-02-20T21:26:10.312Z,100788.05
2019-02-20T21:29:35.328Z,100790.03
2019-02-20T21:32:47.836Z,100789.23
2019-02-20T21:36:15.113Z,100794.66
2019-02-20T21:39:35.728Z,100791.73
2019-02-20T21:42:47.832Z,100791.36
2019-02-20T21:46:08.230Z,100798.52
2019-02-20T21:49:44.954Z,100802.47
2019-02-20T21:53:13.387Z,100812.17
2019-02-20T21:56:35.725Z,100812.48
2019-02-20T22:00:20.810Z,100818.83
2019-02-20T22:03:58.080Z,100822.65
2019-02-20T22:07:13.420Z,100822.09
2019-02-20T22:10:42.988Z,100821.19
2019-02-20T22:13:46.482Z,100825.84
2019-02-20T22:17:04.582Z,100825.36
2019-02-20T22:20:17.531Z,100824.29
2019-02-20T22:23:33.740Z,100826.77
2019-02-20T22:26:46.050Z,100824.77
2019-02-20T22:29:57.708Z,100828.78
2019-02-20T22:33:22.939Z,100829.20
2019-02-20T22:36:51.471Z,100829.78
2019-02-20T22:39:49.739Z,100824.92
2019-02-20T22:43:18.883Z,100826.52
2019-02-20T22:46:25.518Z,100827.81
2019-02-20T22:49:48.189Z,100827.54
2019-02-20T22:53:30.255Z,100827.73
2019-02-20T22:57:28.160Z,100831.57
2019-02-20T23:00:49.890Z,100837.25
2019-02-20T23:04:04.835Z,100841.73
2019-02-20T23:07:01.491Z,100842.91
2019-02-20T23:10:36.883Z,100843.13
2019-02-20T23:13:56.535Z,100841.66
2019-02-20T23:16:31.895Z,100842.30
2019-02-20T23:19:05.224Z,100842.65
2019-02-20T23:21:38.389Z,100845.05
2019-02-20T23:24:11.202Z,100849.50
2019-02-20T23:26:43.936Z,100849.92
2019-02-20T23:29:18.230Z,100850.83
2019-02-20T23:31:53.876Z,100849.31
2019-02-20T23:34:27.348Z,100850.53
2019-02-20T23:37:01.377Z,100850.34
2019-02-20T23:39:35.633Z,100846.50
2019-02-20T23:42:08.645Z,100857.08
2019-02-20T23:44:43.165Z,100857.10
2019-02-20T23:47:15.822Z,100858.58
2019-02-20T23:49:48.399Z,100856.34
2019-02-20T23:52:21.583Z,100854.37
2019-02-20T23:54:57.629Z,100856.42
2019-02-20T23:57:31.528Z,100862.84
